createdAt,value
2019-02-11T00:00:17.131Z,1.9
2019-02-11T00:01:07.466Z,1.8
2019-02-11T00:01:57.262Z,1.6
2019-02-11T00:02:47.309Z,1.6
2019-02-11T00:03:37.364Z,1.8
2019-02-11T00:04:27.429Z,2.1
2019-02-11T00:05:17.479Z,2.2
2019-02-11T00:06:07.822Z,2.1
2019-02-11T00:06:57.604Z,2.1
2019-02-11T00:07:47.371Z,2.1
2019-02-11T00:08:37.992Z,2
2019-02-11T00:09:27.780Z,1.9
2019-02-11T00:10:18.111Z,2.3
2019-02-11T00:11:08.173Z,2.6
2019-02-11T00:11:57.663Z,2.8
2019-02-11T00:12:47.726Z,2.8
2019-02-11T00:13:38.349Z,2.7
2019-02-11T00:14:27.861Z,2.7
2019-02-11T00:15:18.180Z,2.6
2019-02-11T00:16:08.516Z,2.6
2019-02-11T00:16:58.626Z,2.6
2019-02-11T00:17:48.678Z,2.4
2019-02-11T00:18:38.735Z,2.4
2019-02-11T00:19:28.805Z,2.4
2019-02-11T00:20:18.818Z,2.4
2019-02-11T00:21:08.587Z,2.2
2019-02-11T00:21:58.950Z,2.1
2019-02-11T00:22:48.437Z,2.1
2019-02-11T00:23:38.750Z,2.3
2019-02-11T00:24:28.830Z,2.3
2019-02-11T00:25:18.325Z,2.4
2019-02-11T00:26:08.677Z,2.4
2019-02-11T00:26:59.015Z,2.4
2019-02-11T00:27:49.060Z,2.3
2019-02-11T00:28:39.385Z,2.3
2019-02-11T00:29:29.173Z,2.3
2019-02-11T00:30:19.507Z,2.3
2019-02-11T00:31:09.686Z,2.2
2019-02-11T00:31:59.677Z,2.1
2019-02-11T00:32:49.844Z,2
2019-02-11T00:33:39.749Z,1.9
2019-02-11T00:34:29.587Z,1.8
2019-02-11T00:35:19.867Z,1.8
2019-02-11T00:36:09.639Z,1.7
2019-02-11T00:36:59.724Z,1.6
2019-02-11T00:37:50.035Z,1.5
2019-02-11T00:38:39.814Z,1.5
2019-02-11T00:39:29.738Z,1.4
2019-02-11T00:40:19.932Z,1.4
2019-02-11T00:41:09.726Z,1.3
2019-02-11T00:41:59.766Z,1.1
2019-02-11T00:42:50.106Z,1.1
2019-02-11T00:43:40.169Z,1
2019-02-11T00:44:30.220Z,1
2019-02-11T00:45:20.277Z,1
2019-02-11T00:46:10.331Z,1
2019-02-11T00:47:00.428Z,0.9
2019-02-11T00:47:50.451Z,0.9
2019-02-11T00:48:40.797Z,0.8
2019-02-11T00:49:30.564Z,0.9
2019-02-11T00:50:20.634Z,0.9
2019-02-11T00:51:10.121Z,0.9
2019-02-11T00:52:00.200Z,0.9
2019-02-11T00:52:51.088Z,0.9
2019-02-11T00:53:40.031Z,0.9
2019-02-11T00:54:30.917Z,1.1
2019-02-11T00:55:21.035Z,1.1
2019-02-11T00:56:11.305Z,1.1
2019-02-11T00:57:01.095Z,1.1
2019-02-11T00:57:51.163Z,1.2
2019-02-11T00:58:40.651Z,1.2
2019-02-11T00:59:31.563Z,1.2
2019-02-11T01:00:21.350Z,1.1
2019-02-11T01:01:11.687Z,1.1
2019-02-11T01:02:01.160Z,1.1
2019-02-11T01:02:51.500Z,1.1
2019-02-11T01:03:41.847Z,1.2
2019-02-11T01:04:31.622Z,1.2
2019-02-11T01:05:21.685Z,1.2
2019-02-11T01:06:11.477Z,1.3
2019-02-11T01:07:01.860Z,1.3
2019-02-11T01:07:52.143Z,1.3
2019-02-11T01:08:41.627Z,1.2
2019-02-11T01:09:31.959Z,1.1
2019-02-11T01:10:21.817Z,1.2
2019-02-11T01:11:12.100Z,1.3
2019-02-11T01:12:01.861Z,1.2
2019-02-11T01:12:52.477Z,1.1
2019-02-11T01:13:42.040Z,1.2
2019-02-11T01:14:31.780Z,1.3
2019-02-11T01:15:22.099Z,1.3
2019-02-11T01:16:12.722Z,1.2
2019-02-11T01:17:02.228Z,1.2
2019-02-11T01:17:52.897Z,1.1
2019-02-11T01:18:42.679Z,1.1
2019-02-11T01:19:32.674Z,1
2019-02-11T01:20:22.725Z,1.1
2019-02-11T01:21:12.779Z,1.1
2019-02-11T01:22:02.844Z,1.1
2019-02-11T01:22:53.177Z,1.2
2019-02-11T01:23:42.974Z,1.3
2019-02-11T01:24:33.311Z,1.4
2019-02-11T01:25:22.805Z,1.4
2019-02-11T01:26:12.871Z,1.4
2019-02-11T01:27:03.468Z,1.4
2019-02-11T01:27:53.531Z,1.3
2019-02-11T01:28:43.591Z,1.3
2019-02-11T01:29:33.371Z,1.3
2019-02-11T01:30:23.706Z,1.3
2019-02-11T01:31:12.938Z,1.4
2019-02-11T01:32:03.533Z,1.5
2019-02-11T01:32:53.603Z,1.4
2019-02-11T01:33:43.706Z,1.4
2019-02-11T01:34:33.455Z,1.4
2019-02-11T01:35:24.060Z,1.4
2019-02-11T01:36:13.281Z,1.5
2019-02-11T01:37:03.620Z,1.5
2019-02-11T01:37:53.993Z,1.6
2019-02-11T01:38:44.022Z,1.6
2019-02-11T01:39:33.854Z,1.6
2019-02-11T01:40:23.855Z,1.5
2019-02-11T01:41:14.191Z,1.4
2019-02-11T01:42:04.524Z,1.7
2019-02-11T01:42:54.303Z,1.7
2019-02-11T01:43:44.636Z,1.6
2019-02-11T01:44:33.858Z,1.6
2019-02-11T01:45:24.485Z,1.4
2019-02-11T01:46:14.835Z,1.4
2019-02-11T01:47:04.092Z,1.4
2019-02-11T01:47:54.663Z,1.4
2019-02-11T01:48:44.987Z,1.4
2019-02-11T01:49:35.060Z,1.4
2019-02-11T01:50:25.107Z,1.3
2019-02-11T01:51:14.892Z,1.3
2019-02-11T01:52:04.454Z,1.4
2019-02-11T01:52:55.297Z,1.4
2019-02-11T01:53:45.112Z,1.4
2019-02-11T01:54:35.404Z,1.4
2019-02-11T01:55:25.197Z,1.4
2019-02-11T01:56:15.035Z,1.4
2019-02-11T01:57:05.579Z,1.4
2019-02-11T01:57:55.635Z,1.4
2019-02-11T01:58:45.194Z,1.6
2019-02-11T01:59:35.757Z,1.8
2019-02-11T02:00:25.529Z,1.9
2019-02-11T02:01:15.599Z,2.1
2019-02-11T02:02:05.655Z,2.1
2019-02-11T02:02:55.703Z,2
2019-02-11T02:03:45.776Z,2.1
2019-02-11T02:04:36.098Z,2.1
2019-02-11T02:05:25.621Z,2.1
2019-02-11T02:06:15.943Z,2
2019-02-11T02:07:06.009Z,1.9
2019-02-11T02:07:56.064Z,1.6
2019-02-11T02:08:46.107Z,1.5
2019-02-11T02:09:36.186Z,1.3
2019-02-11T02:10:25.958Z,1.3
2019-02-11T02:11:16.291Z,1.3
2019-02-11T02:12:06.357Z,1.3
2019-02-11T02:12:55.863Z,1.3
2019-02-11T02:13:47.753Z,1.3
2019-02-11T02:14:36.520Z,1.3
2019-02-11T02:15:26.348Z,1.3
2019-02-11T02:16:16.920Z,1.2
2019-02-11T02:17:06.153Z,1
2019-02-11T02:17:57.030Z,1
2019-02-11T02:18:46.820Z,1.1
2019-02-11T02:19:36.321Z,1.1
2019-02-11T02:20:27.202Z,1.1
2019-02-11T02:21:17.280Z,1.2
2019-02-11T02:22:06.502Z,1.1
2019-02-11T02:22:57.120Z,1
2019-02-11T02:23:47.455Z,1
2019-02-11T02:24:36.953Z,1.3
2019-02-11T02:25:27.565Z,1.4
2019-02-11T02:26:17.340Z,1.3
2019-02-11T02:27:07.137Z,1.3
2019-02-11T02:27:57.469Z,1.3
2019-02-11T02:28:47.235Z,1.4
2019-02-11T02:29:37.576Z,1.3
2019-02-11T02:30:27.675Z,1.1
2019-02-11T02:31:17.155Z,1
2019-02-11T02:32:07.512Z,0.9
2019-02-11T02:32:57.840Z,0.8
2019-02-11T02:33:48.168Z,0.8
2019-02-11T02:34:37.707Z,0.8
2019-02-11T02:35:27.995Z,0.8
2019-02-11T02:36:17.806Z,0.9
2019-02-11T02:37:08.407Z,1.1
2019-02-11T02:37:58.464Z,1.1
2019-02-11T02:38:48.514Z,1.1
2019-02-11T02:39:38.282Z,1.2
2019-02-11T02:40:28.701Z,1.2
2019-02-11T02:41:18.147Z,0.9
2019-02-11T02:42:08.491Z,1
2019-02-11T02:42:58.864Z,1.1
2019-02-11T02:43:58.529Z,1.1
2019-02-11T02:44:38.181Z,1
2019-02-11T02:45:28.226Z,1.1
2019-02-11T02:46:18.049Z,1.3
2019-02-11T02:47:08.349Z,1.3
2019-02-11T02:47:58.686Z,1.4
2019-02-11T02:48:48.739Z,1.4
2019-02-11T02:49:38.523Z,1.3
2019-02-11T02:50:28.865Z,1.3
2019-02-11T02:51:18.654Z,1.5
2019-02-11T02:52:08.998Z,1.4
2019-02-11T02:52:59.030Z,1.4
2019-02-11T02:53:48.815Z,1.4
2019-02-11T02:54:38.885Z,1.6
2019-02-11T02:55:28.650Z,1.7
2019-02-11T02:56:19.012Z,1.6
2019-02-11T02:57:09.062Z,1.5
2019-02-11T02:57:59.393Z,1.5
2019-02-11T02:58:49.468Z,1.6
2019-02-11T02:59:39.725Z,1.6
2019-02-11T03:00:29.758Z,1.5
2019-02-11T03:01:20.088Z,1.4
2019-02-11T03:02:09.627Z,1.4
2019-02-11T03:02:59.680Z,1.5
2019-02-11T03:03:49.735Z,1.6
2019-02-11T03:04:40.068Z,1.7
2019-02-11T03:08:12.436Z,1.6
2019-02-11T03:09:01.980Z,1.3
2019-02-11T03:09:52.586Z,1.1
2019-02-11T03:10:42.599Z,1
2019-02-11T03:11:32.689Z,0.9
2019-02-11T03:12:22.719Z,0.9
2019-02-11T03:13:12.997Z,0.9
2019-02-11T03:14:09.142Z,0.9
2019-02-11T03:14:52.909Z,0.9
2019-02-11T03:15:42.948Z,1
2019-02-11T03:16:32.473Z,1.1
2019-02-11T03:17:23.067Z,1.1
2019-02-11T03:18:13.155Z,1.2
2019-02-11T03:19:02.659Z,1.1
2019-02-11T03:19:52.967Z,1
2019-02-11T03:20:43.014Z,1
2019-02-11T03:21:33.359Z,1
2019-02-11T03:22:23.408Z,1.2
2019-02-11T03:23:12.943Z,1.2
2019-02-11T03:24:03.547Z,1.1
2019-02-11T03:24:53.311Z,1.1
2019-02-11T03:25:43.424Z,1.1
2019-02-11T03:26:33.701Z,1
2019-02-11T03:27:23.788Z,0.9
2019-02-11T03:28:13.561Z,0.8
2019-02-11T03:29:03.606Z,0.8
2019-02-11T03:29:53.786Z,0.8
2019-02-11T03:30:43.782Z,0.9
2019-02-11T03:31:34.174Z,0.9
2019-02-11T03:32:24.193Z,0.9
2019-02-11T03:33:14.053Z,0.8
2019-02-11T03:34:04.288Z,0.6
2019-02-11T03:34:54.016Z,0.4
2019-02-11T03:35:44.070Z,0.6
2019-02-11T03:36:34.198Z,0.6
2019-02-11T03:37:24.469Z,0.6
2019-02-11T03:38:14.250Z,0.4
2019-02-11T03:39:04.613Z,0.2
2019-02-11T03:39:54.389Z,0.1
2019-02-11T03:40:44.699Z,0.1
2019-02-11T03:41:34.485Z,0
2019-02-11T03:42:24.541Z,0
2019-02-11T03:43:14.887Z,0.1
2019-02-11T03:44:04.937Z,0.3
2019-02-11T03:44:54.430Z,0.3
2019-02-11T03:45:45.076Z,0.3
2019-02-11T03:46:35.120Z,0.3
2019-02-11T03:47:24.904Z,0.3
2019-02-11T03:48:14.955Z,0.3
2019-02-11T03:49:04.832Z,0.5
2019-02-11T03:49:54.855Z,0.7
2019-02-11T03:50:44.649Z,0.6
2019-02-11T03:51:34.422Z,0.4
2019-02-11T03:52:24.780Z,0.4
2019-02-11T03:53:15.331Z,0.4
2019-02-11T03:54:04.882Z,0.3
2019-02-11T03:54:55.722Z,0.2
2019-02-11T03:55:45.007Z,0.1
2019-02-11T03:56:35.076Z,-0.1
2019-02-11T03:57:25.124Z,-0.1
2019-02-11T03:58:15.173Z,-0.1
2019-02-11T03:59:05.722Z,0
2019-02-11T03:59:55.575Z,0
2019-02-11T04:00:46.114Z,-0.1
2019-02-11T04:01:35.878Z,0
2019-02-11T04:02:25.946Z,0
2019-02-11T04:03:16.016Z,0.1
2019-02-11T04:04:05.806Z,0.1
2019-02-11T04:04:56.399Z,0.1
2019-02-11T04:05:45.627Z,0
2019-02-11T04:06:36.519Z,-0.1
2019-02-11T04:07:26.614Z,-0.1
2019-02-11T04:08:16.631Z,-0.1
2019-02-11T04:09:06.725Z,-0.1
2019-02-11T04:09:56.541Z,-0.2
2019-02-11T04:10:46.550Z,0
2019-02-11T04:11:36.581Z,0.1
2019-02-11T04:12:26.950Z,0.3
2019-02-11T04:13:16.441Z,0.3
2019-02-11T04:14:06.781Z,0.1
2019-02-11T04:14:57.160Z,0.1
2019-02-11T04:15:47.183Z,0.1
2019-02-11T04:16:36.934Z,0.1
2019-02-11T04:17:26.740Z,0.2
2019-02-11T04:18:17.346Z,0.3
2019-02-11T04:19:07.464Z,0.3
2019-02-11T04:19:57.215Z,0.4
2019-02-11T04:20:50.036Z,0.4
2019-02-11T04:21:37.329Z,0.4
2019-02-11T04:22:27.342Z,0.4
2019-02-11T04:23:17.687Z,0.3
2019-02-11T04:24:07.815Z,0
2019-02-11T04:24:57.523Z,-0.1
2019-02-11T04:25:47.862Z,0.1
2019-02-11T04:26:37.363Z,0.1
2019-02-11T04:27:27.699Z,0.1
2019-02-11T04:28:18.035Z,0.1
2019-02-11T04:29:08.102Z,-0.1
2019-02-11T04:29:58.147Z,0
2019-02-11T04:30:48.292Z,0.1
2019-02-11T04:31:38.015Z,0.1
2019-02-11T04:32:28.063Z,0.1
2019-02-11T04:33:18.133Z,0.2
2019-02-11T04:34:08.169Z,0.1
2019-02-11T04:34:58.224Z,0.1
2019-02-11T04:35:48.564Z,0
2019-02-11T04:36:38.679Z,0.1
2019-02-11T04:37:28.669Z,0.2
2019-02-11T04:38:18.740Z,0.3
2019-02-11T04:39:08.792Z,0.3
2019-02-11T04:39:58.330Z,0.3
2019-02-11T04:40:48.641Z,0.2
2019-02-11T04:41:38.396Z,0.1
2019-02-11T04:42:28.488Z,0.1
2019-02-11T04:43:19.172Z,0.2
2019-02-11T04:44:09.157Z,0.3
2019-02-11T04:44:58.925Z,0.4
2019-02-11T04:45:48.971Z,0.5
2019-02-11T04:46:39.308Z,0.6
2019-02-11T04:47:28.570Z,0.4
2019-02-11T04:48:19.443Z,0.4
2019-02-11T04:49:08.948Z,0.4
2019-02-11T04:49:59.584Z,0.3
2019-02-11T04:50:49.622Z,0.3
2019-02-11T04:51:39.391Z,0.3
2019-02-11T04:52:29.743Z,0.3
2019-02-11T04:53:19.238Z,0.3
2019-02-11T04:54:09.916Z,0.3
2019-02-11T04:54:59.632Z,0.2
2019-02-11T04:55:49.991Z,0.1
2019-02-11T04:56:39.753Z,0.1
2019-02-11T04:57:30.118Z,0.1
2019-02-11T04:58:19.605Z,0.2
2019-02-11T04:59:09.955Z,0.2
2019-02-11T05:00:00.404Z,0.1
2019-02-11T05:00:50.033Z,0.1
2019-02-11T05:01:40.108Z,0.1
2019-02-11T05:02:29.900Z,0.1
2019-02-11T05:03:20.499Z,0.2
2019-02-11T05:04:10.562Z,0.2
2019-02-11T05:05:00.702Z,0.1
2019-02-11T05:05:50.670Z,0.1
2019-02-11T05:06:40.812Z,0
2019-02-11T05:07:30.863Z,0.1
2019-02-11T05:08:20.705Z,0.1
2019-02-11T05:09:10.929Z,0.2
2019-02-11T05:10:00.992Z,0.2
2019-02-11T05:10:51.011Z,0.1
2019-02-11T05:11:41.095Z,0
2019-02-11T05:12:31.172Z,0.1
2019-02-11T05:13:21.214Z,0.1
2019-02-11T05:14:11.263Z,0.2
2019-02-11T05:15:01.090Z,0.3
2019-02-11T05:15:51.435Z,-0.1
2019-02-11T05:16:40.882Z,0
2019-02-11T05:17:31.492Z,0.1
2019-02-11T05:18:21.540Z,0.1
2019-02-11T05:19:11.602Z,0.1
2019-02-11T05:20:00.842Z,0.1
2019-02-11T05:20:51.763Z,0
2019-02-11T05:21:41.503Z,0.1
2019-02-11T05:22:31.279Z,0.1
2019-02-11T05:23:21.911Z,0.1
2019-02-11T05:24:11.972Z,0
2019-02-11T05:25:02.013Z,0
2019-02-11T05:25:51.887Z,0
2019-02-11T05:26:42.138Z,0
2019-02-11T05:27:31.394Z,0.1
2019-02-11T05:28:22.023Z,0.3
2019-02-11T05:29:12.037Z,0.3
2019-02-11T05:30:02.216Z,0.3
2019-02-11T05:30:52.434Z,0.2
2019-02-11T05:31:42.496Z,0.3
2019-02-11T05:32:32.063Z,0.1
2019-02-11T05:33:22.825Z,0
2019-02-11T05:34:12.698Z,0
2019-02-11T05:35:03.128Z,0
2019-02-11T05:35:52.771Z,-0.1
2019-02-11T05:36:42.823Z,-0.1
2019-02-11T05:37:32.895Z,-0.2
2019-02-11T05:38:22.696Z,-0.2
2019-02-11T05:39:12.753Z,-0.2
2019-02-11T05:40:03.021Z,-0.2
2019-02-11T05:40:53.123Z,-0.2
2019-02-11T05:41:43.190Z,-0.2
2019-02-11T05:42:32.960Z,-0.3
2019-02-11T05:43:23.317Z,-0.3
2019-02-11T05:44:12.810Z,-0.3
2019-02-11T05:45:03.227Z,-0.3
2019-02-11T05:45:53.452Z,-0.4
2019-02-11T05:46:43.520Z,-0.5
2019-02-11T05:47:33.325Z,-0.5
2019-02-11T05:48:22.830Z,-0.4
2019-02-11T05:49:13.423Z,-0.4
2019-02-11T05:50:03.544Z,-0.3
2019-02-11T05:50:53.275Z,-0.1
2019-02-11T05:51:43.936Z,-0.1
2019-02-11T05:52:33.967Z,-0.1
2019-02-11T05:53:23.707Z,0
2019-02-11T05:54:14.079Z,0
2019-02-11T05:55:04.147Z,-0.1
2019-02-11T05:55:53.892Z,-0.3
2019-02-11T05:56:44.229Z,-0.4
2019-02-11T05:57:34.045Z,-0.4
2019-02-11T05:58:24.349Z,-0.4
2019-02-11T05:59:14.396Z,-0.3
2019-02-11T06:00:04.653Z,-0.3
2019-02-11T06:00:54.224Z,-0.2
2019-02-11T06:01:44.609Z,-0.2
2019-02-11T06:02:34.358Z,-0.2
2019-02-11T06:03:24.738Z,0
2019-02-11T06:04:14.199Z,0.1
2019-02-11T06:06:11.725Z,0.1
2019-02-11T06:07:02.316Z,0.1
2019-02-11T06:07:52.384Z,0.1
2019-02-11T06:08:42.174Z,0.1
2019-02-11T06:09:32.498Z,0.1
2019-02-11T06:10:22.302Z,0.1
2019-02-11T06:11:12.068Z,0.1
2019-02-11T06:12:02.728Z,0.1
2019-02-11T06:12:52.719Z,0.2
2019-02-11T06:13:42.221Z,0.2
2019-02-11T06:14:32.283Z,0.3
2019-02-11T06:15:22.609Z,0.3
2019-02-11T06:16:12.706Z,0.4
2019-02-11T06:17:03.018Z,0.6
2019-02-11T06:17:52.326Z,0.6
2019-02-11T06:18:42.408Z,0.8
2019-02-11T06:19:32.628Z,0.8
2019-02-11T06:20:23.290Z,0.9
2019-02-11T06:21:13.290Z,1.1
2019-02-11T06:22:03.355Z,1.2
2019-02-11T06:22:53.439Z,1.3
2019-02-11T06:23:43.470Z,1.3
2019-02-11T06:24:33.525Z,1.5
2019-02-11T06:25:23.409Z,1.6
2019-02-11T06:26:13.645Z,1.8
2019-02-11T06:27:03.037Z,1.8
2019-02-11T06:27:53.770Z,1.9
2019-02-11T06:28:43.862Z,1.9
2019-02-11T06:29:33.620Z,1.9
2019-02-11T06:30:23.407Z,1.9
2019-02-11T06:31:13.727Z,1.9
2019-02-11T06:32:04.146Z,2
2019-02-11T06:32:53.576Z,2
2019-02-11T06:33:43.917Z,2.1
2019-02-11T06:34:35.828Z,2.2
2019-02-11T06:35:24.037Z,2.4
2019-02-11T06:36:15.302Z,2.4
2019-02-11T06:37:04.145Z,2.4
2019-02-11T06:37:54.197Z,2.6
2019-02-11T06:38:44.270Z,2.6
2019-02-11T06:39:34.586Z,2.7
2019-02-11T06:40:24.675Z,2.6
2019-02-11T06:41:14.151Z,2.6
2019-02-11T06:42:04.487Z,2.5
2019-02-11T06:42:54.544Z,2.5
2019-02-11T06:43:44.594Z,2.5
2019-02-11T06:44:34.984Z,2.6
2019-02-11T06:45:24.983Z,2.6
2019-02-11T06:46:14.777Z,2.4
2019-02-11T06:47:05.114Z,2.5
2019-02-11T06:47:55.186Z,2.5
2019-02-11T06:48:44.958Z,2.6
2019-02-11T06:49:35.014Z,2.6
2019-02-11T06:50:25.076Z,2.6
2019-02-11T06:51:14.871Z,2.6
2019-02-11T06:52:05.173Z,2.6
2019-02-11T06:52:55.296Z,2.6
2019-02-11T06:53:45.291Z,2.6
2019-02-11T06:54:35.400Z,2.7
2019-02-11T06:55:25.137Z,2.7
2019-02-11T06:56:14.931Z,2.6
2019-02-11T06:57:06.941Z,2.6
2019-02-11T06:57:55.863Z,2.5
2019-02-11T06:58:45.648Z,2.3
2019-02-11T06:59:35.983Z,2.3
2019-02-11T07:00:25.830Z,2.1
2019-02-11T07:01:15.540Z,2.1
2019-02-11T07:02:05.872Z,2
2019-02-11T07:02:55.400Z,2
2019-02-11T07:03:45.722Z,2
2019-02-11T07:06:12.213Z,2.1
2019-02-11T07:07:02.267Z,2.2
2019-02-11T07:07:52.045Z,2.2
2019-02-11T07:08:42.382Z,2.2
2019-02-11T07:09:32.442Z,2.3
2019-02-11T07:10:22.505Z,2.3
2019-02-11T07:11:12.045Z,2.4
2019-02-11T07:12:02.072Z,2.6
2019-02-11T07:12:52.686Z,2.7
2019-02-11T07:13:42.464Z,2.9
2019-02-11T07:14:32.792Z,2.9
2019-02-11T07:15:24.734Z,2.8
2019-02-11T07:16:12.914Z,2.8
2019-02-11T07:17:02.140Z,2.8
2019-02-11T07:17:52.754Z,2.8
2019-02-11T07:18:42.820Z,2.8
2019-02-11T07:19:33.132Z,2.9
2019-02-11T07:20:22.717Z,2.9
2019-02-11T07:21:12.966Z,3.1
2019-02-11T07:22:03.334Z,3.1
2019-02-11T07:22:53.379Z,2.9
2019-02-11T07:23:43.147Z,2.8
2019-02-11T07:24:33.482Z,2.9
2019-02-11T07:25:23.563Z,3
2019-02-11T07:26:13.596Z,2.9
2019-02-11T07:27:03.376Z,3.1
2019-02-11T07:27:53.719Z,3.3
2019-02-11T07:28:43.783Z,3.3
2019-02-11T07:29:33.271Z,3.4
2019-02-11T07:30:23.144Z,3.5
2019-02-11T07:31:13.905Z,3.3
2019-02-11T07:32:04.011Z,3.4
2019-02-11T07:32:54.061Z,3.4
2019-02-11T07:33:43.579Z,3.3
2019-02-11T07:34:33.629Z,3.4
2019-02-11T07:35:24.253Z,3.5
2019-02-11T07:36:14.316Z,3.6
2019-02-11T07:37:04.371Z,3.5
2019-02-11T07:37:54.529Z,3.6
2019-02-11T07:38:43.970Z,3.6
2019-02-11T07:39:34.548Z,3.8
2019-02-11T07:40:24.065Z,3.8
2019-02-11T07:41:14.353Z,3.8
2019-02-11T07:42:06.663Z,4
2019-02-11T07:42:53.917Z,4.2
2019-02-11T07:43:44.574Z,4.3
2019-02-11T07:44:34.310Z,4.3
2019-02-11T07:45:32.625Z,4.3
2019-02-11T07:46:14.700Z,4.1
2019-02-11T07:47:04.750Z,4.1
2019-02-11T07:47:54.567Z,4.1
2019-02-11T07:48:44.892Z,4
2019-02-11T07:49:34.942Z,4
2019-02-11T07:50:25.278Z,4
2019-02-11T07:51:15.327Z,4.1
2019-02-11T07:52:05.385Z,4.4
2019-02-11T07:52:55.163Z,4.6
2019-02-11T07:53:45.225Z,4.8
2019-02-11T07:54:35.609Z,4.9
2019-02-11T07:55:24.779Z,4.8
2019-02-11T07:56:15.733Z,4.6
2019-02-11T07:57:05.204Z,4.6
2019-02-11T07:57:55.511Z,4.7
2019-02-11T07:58:45.562Z,4.7
2019-02-11T07:59:35.915Z,4.8
2019-02-11T08:00:25.969Z,4.9
2019-02-11T08:01:15.482Z,4.8
2019-02-11T08:02:05.809Z,4.9
2019-02-11T08:02:56.157Z,4.9
2019-02-11T08:03:45.937Z,5
2019-02-11T08:04:36.254Z,5.1
2019-02-11T08:05:25.769Z,5.1
2019-02-11T08:06:16.396Z,5.2
2019-02-11T08:07:05.931Z,5.3
2019-02-11T08:07:56.489Z,5.4
2019-02-11T08:08:46.546Z,5.6
2019-02-11T08:09:36.596Z,5.6
2019-02-11T08:10:26.651Z,5.6
2019-02-11T08:11:16.721Z,5.7
2019-02-11T08:12:06.288Z,5.8
2019-02-11T08:12:56.569Z,6.1
2019-02-11T08:13:46.604Z,6.1
2019-02-11T08:14:36.948Z,6
2019-02-11T08:15:26.461Z,5.9
2019-02-11T08:16:17.078Z,5.9
2019-02-11T08:17:07.131Z,5.8
2019-02-11T08:17:59.066Z,5.5
2019-02-11T08:18:46.959Z,5.3
2019-02-11T08:19:37.072Z,5.2
2019-02-11T08:20:27.090Z,5
2019-02-11T08:21:17.410Z,4.9
2019-02-11T08:22:06.930Z,5
2019-02-11T08:22:56.975Z,5.1
2019-02-11T08:23:47.308Z,5.3
2019-02-11T08:24:37.647Z,5.4
2019-02-11T08:25:27.445Z,5.5
2019-02-11T08:26:17.472Z,5.8
2019-02-11T08:27:07.570Z,5.9
2019-02-11T08:27:57.338Z,5.9
2019-02-11T08:28:47.927Z,6
2019-02-11T08:29:37.740Z,6.1
2019-02-11T08:30:27.779Z,6.3
2019-02-11T08:31:18.102Z,6.6
2019-02-11T08:32:08.150Z,7
2019-02-11T08:32:58.226Z,7.2
2019-02-11T08:33:47.996Z,7.3
2019-02-11T08:34:38.375Z,7.6
2019-02-11T08:35:29.787Z,7.7
2019-02-11T08:36:18.109Z,7.8
2019-02-11T08:37:08.567Z,7.9
2019-02-11T08:37:58.009Z,7.8
2019-02-11T08:38:48.614Z,7.7
2019-02-11T08:39:38.677Z,7.8
2019-02-11T08:40:27.899Z,8.1
2019-02-11T08:41:18.799Z,8.1
2019-02-11T08:42:08.850Z,8.2
2019-02-11T08:42:58.637Z,8.1
2019-02-11T08:43:48.959Z,7.7
2019-02-11T08:44:38.752Z,7.4
2019-02-11T08:45:28.810Z,7.8
2019-02-11T08:46:18.596Z,8.3
2019-02-11T08:47:08.933Z,8.6
2019-02-11T08:47:58.991Z,8.3
2019-02-11T08:48:48.816Z,8.4
2019-02-11T08:49:39.243Z,8.1
2019-02-11T08:50:29.735Z,7.7
2019-02-11T08:51:19.471Z,7.8
2019-02-11T08:52:09.261Z,8.4
2019-02-11T08:52:59.044Z,8.9
2019-02-11T08:53:49.101Z,9
2019-02-11T08:54:39.438Z,9.1
2019-02-11T08:55:29.773Z,8.8
2019-02-11T08:56:19.551Z,8.8
2019-02-11T08:57:09.608Z,8.5
2019-02-11T08:57:59.937Z,8.5
2019-02-11T08:58:49.725Z,8.6
2019-02-11T08:59:39.788Z,8.8
2019-02-11T09:00:29.574Z,8.6
2019-02-11T09:01:19.941Z,8.4
2019-02-11T09:02:09.953Z,8.4
2019-02-11T09:03:00.311Z,8.7
2019-02-11T09:03:50.072Z,8.7
2019-02-11T09:04:40.423Z,8.7
2019-02-11T09:05:30.205Z,8.6
2019-02-11T09:06:20.437Z,8.5
2019-02-11T09:07:10.035Z,8.6
2019-02-11T09:08:02.363Z,8.7
2019-02-11T09:08:50.420Z,8.9
2019-02-11T09:09:40.529Z,9
2019-02-11T09:10:30.077Z,9.1
2019-02-11T09:11:20.615Z,9.3
2019-02-11T09:12:10.957Z,9.4
2019-02-11T09:13:00.720Z,9.8
2019-02-11T09:13:50.770Z,10.1
2019-02-11T09:14:40.844Z,10
2019-02-11T09:15:31.182Z,9.8
2019-02-11T09:16:21.233Z,9.7
2019-02-11T09:17:13.127Z,9.9
2019-02-11T09:18:01.347Z,9.4
2019-02-11T09:18:50.831Z,9.4
2019-02-11T09:19:41.446Z,9.3
2019-02-11T09:20:31.242Z,9.2
2019-02-11T09:21:21.298Z,9.3
2019-02-11T09:22:11.339Z,9.4
2019-02-11T09:23:01.134Z,9.6
2019-02-11T09:23:51.748Z,9.4
2019-02-11T09:24:41.239Z,9.4
2019-02-11T09:25:31.854Z,9.3
2019-02-11T09:26:21.649Z,9.2
2019-02-11T09:27:11.964Z,9.3
2019-02-11T09:28:02.027Z,9.4
2019-02-11T09:28:51.573Z,9.4
2019-02-11T09:29:41.854Z,9.1
2019-02-11T09:30:31.451Z,8.9
2019-02-11T09:31:21.706Z,8.7
2019-02-11T09:32:11.766Z,9.1
2019-02-11T09:33:01.910Z,9.3
2019-02-11T09:33:52.233Z,9.4
2019-02-11T09:34:41.685Z,9.3
2019-02-11T09:35:32.558Z,9
2019-02-11T09:36:22.348Z,9.1
2019-02-11T09:37:12.416Z,9
2019-02-11T09:38:02.734Z,9.1
2019-02-11T09:38:52.246Z,9.2
2019-02-11T09:39:42.618Z,9
2019-02-11T09:40:32.378Z,8.8
2019-02-11T09:41:22.953Z,8.9
2019-02-11T09:42:12.798Z,8.8
2019-02-11T09:43:02.804Z,8.8
2019-02-11T09:43:52.880Z,9.1
2019-02-11T09:44:43.180Z,9.1
2019-02-11T09:45:32.973Z,8.8
2019-02-11T09:46:23.033Z,8.9
2019-02-11T09:47:13.375Z,9.3
2019-02-11T09:48:03.155Z,9.4
2019-02-11T09:48:52.735Z,9.3
2019-02-11T09:49:43.542Z,9.4
2019-02-11T09:50:33.330Z,9.4
2019-02-11T09:51:23.655Z,9.2
2019-02-11T09:52:13.445Z,9.1
2019-02-11T09:53:03.233Z,9.3
2019-02-11T09:53:53.565Z,9.4
2019-02-11T09:54:43.337Z,9
2019-02-11T09:55:33.658Z,8.8
2019-02-11T09:56:24.000Z,8.6
2019-02-11T09:57:13.770Z,8.6
2019-02-11T09:58:04.139Z,8.8
2019-02-11T09:58:53.750Z,8.5
2019-02-11T09:59:44.229Z,8.4
2019-02-11T10:00:33.796Z,8.3
2019-02-11T10:01:24.411Z,8.1
2019-02-11T10:02:14.414Z,8
2019-02-11T10:03:04.217Z,7.9
2019-02-11T10:03:53.994Z,7.9
2019-02-11T10:04:44.307Z,7.9
2019-02-11T10:07:11.774Z,8.5
2019-02-11T10:08:02.161Z,8.7
2019-02-11T10:08:52.189Z,8.8
2019-02-11T10:09:42.221Z,8.9
2019-02-11T10:10:32.299Z,8.9
2019-02-11T10:11:21.496Z,8.9
2019-02-11T10:12:11.921Z,8.9
2019-02-11T10:13:02.463Z,8.8
2019-02-11T10:13:52.511Z,8.9
2019-02-11T10:14:42.341Z,8.8
2019-02-11T10:15:32.377Z,8.8
2019-02-11T10:16:23.985Z,8.6
2019-02-11T10:17:12.738Z,8.5
2019-02-11T10:18:02.798Z,8.4
2019-02-11T10:18:52.856Z,8.3
2019-02-11T10:19:42.921Z,8.2
2019-02-11T10:20:32.437Z,8.1
2019-02-11T10:21:23.033Z,7.9
2019-02-11T10:22:12.811Z,7.9
2019-02-11T10:23:03.168Z,7.8
2019-02-11T10:23:53.210Z,7.9
2019-02-11T10:24:43.267Z,7.9
2019-02-11T10:25:33.052Z,7.9
2019-02-11T10:26:23.388Z,7.8
2019-02-11T10:27:13.162Z,7.8
2019-02-11T10:28:03.494Z,7.8
2019-02-11T10:28:53.288Z,7.8
2019-02-11T10:29:43.070Z,7.8
2019-02-11T10:30:33.420Z,7.8
2019-02-11T10:31:23.728Z,7.7
2019-02-11T10:32:13.815Z,7.9
2019-02-11T10:33:03.310Z,8.1
2019-02-11T10:33:53.900Z,8.3
2019-02-11T10:34:43.737Z,8.4
2019-02-11T10:35:42.668Z,8.6
2019-02-11T10:36:23.796Z,8.8
2019-02-11T10:37:13.852Z,8.7
2019-02-11T10:38:03.362Z,8.7
2019-02-11T10:38:53.434Z,8.8
2019-02-11T10:39:44.334Z,8.5
2019-02-11T10:40:33.824Z,8.2
2019-02-11T10:41:24.422Z,8.1
2019-02-11T10:42:14.527Z,8.4
2019-02-11T10:43:04.334Z,8.6
2019-02-11T10:43:54.609Z,8.8
2019-02-11T10:44:44.392Z,8.7
2019-02-11T10:45:39.233Z,8.6
2019-02-11T10:46:24.221Z,8.7
2019-02-11T10:47:14.009Z,8.6
2019-02-11T10:48:04.910Z,8.6
2019-02-11T10:48:54.679Z,8.6
2019-02-11T10:49:44.997Z,8.8
2019-02-11T10:50:34.878Z,8.9
2019-02-11T10:51:24.847Z,8.9
2019-02-11T10:52:15.173Z,8.8
2019-02-11T10:53:04.962Z,8.5
2019-02-11T10:53:55.037Z,8.3
2019-02-11T10:54:45.356Z,8.2
2019-02-11T10:55:35.144Z,8.3
2019-02-11T10:56:25.203Z,8.3
2019-02-11T10:57:15.253Z,8.4
2019-02-11T10:58:05.703Z,8.6
2019-02-11T10:58:55.416Z,8.6
2019-02-11T10:59:45.476Z,8.8
2019-02-11T11:00:35.757Z,8.9
2019-02-11T11:01:26.847Z,8.9
2019-02-11T11:02:15.336Z,8.9
2019-02-11T11:03:05.963Z,8.9
2019-02-11T11:03:55.720Z,9
2019-02-11T11:04:46.046Z,9
2019-02-11T11:05:35.833Z,9.1
2019-02-11T11:06:26.212Z,9.1
2019-02-11T11:07:16.231Z,9.2
2019-02-11T11:08:06.293Z,9.2
2019-02-11T11:08:56.345Z,9.2
2019-02-11T11:09:46.403Z,9.3
2019-02-11T11:10:36.447Z,9.1
2019-02-11T11:11:26.518Z,9.1
2019-02-11T11:12:15.757Z,9
2019-02-11T11:13:06.362Z,8.9
2019-02-11T11:13:56.466Z,9
2019-02-11T11:14:45.672Z,9.1
2019-02-11T11:15:36.825Z,9
2019-02-11T11:16:32.544Z,8.9
2019-02-11T11:17:16.654Z,8.9
2019-02-11T11:18:06.704Z,8.9
2019-02-11T11:18:56.772Z,8.9
2019-02-11T11:19:46.549Z,8.9
2019-02-11T11:20:36.329Z,9
2019-02-11T11:21:26.461Z,8.9
2019-02-11T11:22:17.271Z,9
2019-02-11T11:23:07.067Z,9
2019-02-11T11:23:56.922Z,8.9
2019-02-11T11:24:47.174Z,9
2019-02-11T11:25:37.511Z,8.9
2019-02-11T11:26:27.569Z,8.8
2019-02-11T11:27:19.352Z,8.8
2019-02-11T11:28:07.693Z,8.8
2019-02-11T11:28:57.740Z,8.9
2019-02-11T11:29:47.516Z,8.8
2019-02-11T11:30:37.316Z,8.6
2019-02-11T11:31:27.631Z,8.5
2019-02-11T11:32:17.968Z,8.5
2019-02-11T11:33:08.274Z,8.4
2019-02-11T11:33:57.533Z,8.5
2019-02-11T11:34:47.816Z,8.6
2019-02-11T11:35:37.942Z,8.6
2019-02-11T11:36:27.756Z,8.6
2019-02-11T11:37:18.318Z,8.5
2019-02-11T11:38:08.103Z,8.5
2019-02-11T11:38:58.451Z,8.4
2019-02-11T11:39:48.233Z,8.3